Zuni, Virginia
Current Conditions -  °F | °C
As of 11:54 AM on Thursday 23 Oct 2014 (Local Time) from KAKQ Reporting Station
Clear Clear  
Wind Chill: 62°   Ceiling: Unl
Heat Index: 62°   Visibility: 10mi
Dew Point: 43°   Wind: 10mph
Humidity: 50%   Direction: 320°NW
Pressure: 29.91"   Gusts: 23mph
Location:  36.87°N, 76.83°W
Report Text: KAKQ 231554Z AUTO 32009G20KT 280V350 10SM CLR 17/06 A2991 RMK AO2 SLP129 T01670061 TSNO
Loading
Personal Weather Stations






























Interactive Weather Map
Tropical Storm Tracking
New forecast layout! Learn more

10-Day Weather Forecast

Advertisements
Track Severe Weather on mobile